createdAt,value
2018-06-11T00:02:02.448Z,11.27
2018-06-11T00:04:30.711Z,11.22
2018-06-11T00:06:58.958Z,10.95
2018-06-11T00:09:27.085Z,11.87
2018-06-11T00:11:55.144Z,10.97
2018-06-11T00:14:24.009Z,12.10
2018-06-11T00:16:52.369Z,11.50
2018-06-11T00:19:20.487Z,11.43
2018-06-11T00:21:48.534Z,10.97
2018-06-11T00:24:16.616Z,11.70
2018-06-11T00:26:44.664Z,26.23
2018-06-11T00:29:12.813Z,11.67
2018-06-11T00:31:40.919Z,11.73
2018-06-11T00:34:08.992Z,11.30
2018-06-11T00:36:37.110Z,11.20
2018-06-11T00:39:07.638Z,11.43
2018-06-11T00:41:35.918Z,12.85
2018-06-11T00:44:04.545Z,11.57
2018-06-11T00:46:32.696Z,11.80
2018-06-11T00:49:03.004Z,13.28
2018-06-11T00:51:31.282Z,13.07
2018-06-11T00:54:00.037Z,13.13
2018-06-11T00:56:28.175Z,12.53
2018-06-11T00:58:56.629Z,12.23
2018-06-11T01:01:25.318Z,13.20
2018-06-11T01:03:54.354Z,13.25
2018-06-11T01:06:23.342Z,13.13
2018-06-11T01:08:52.043Z,12.50
2018-06-11T01:11:20.186Z,12.90
2018-06-11T01:13:48.349Z,13.17
2018-06-11T01:16:17.766Z,13.00
2018-06-11T01:18:48.088Z,12.50
2018-06-11T01:21:16.369Z,14.20
2018-06-11T01:23:45.114Z,12.87
2018-06-11T01:26:13.537Z,26.60
2018-06-11T01:28:42.322Z,15.00
2018-06-11T01:31:10.471Z,12.90
2018-06-11T01:33:38.623Z,12.82
2018-06-11T01:36:06.750Z,13.40
2018-06-11T01:38:35.299Z,13.70
2018-06-11T01:41:04.616Z,14.50
2018-06-11T01:43:33.031Z,13.33
2018-06-11T01:46:01.695Z,13.17
2018-06-11T01:48:32.493Z,13.30
2018-06-11T01:51:01.060Z,14.03
2018-06-11T01:53:29.171Z,14.00
2018-06-11T01:55:57.253Z,14.30
2018-06-11T01:58:25.464Z,13.80
2018-06-11T02:00:54.212Z,14.37
2018-06-11T02:03:22.697Z,14.03
2018-06-11T02:05:50.835Z,14.97
2018-06-11T02:08:18.974Z,14.00
2018-06-11T02:10:47.524Z,14.87
2018-06-11T02:13:15.667Z,13.97
2018-06-11T02:15:43.839Z,15.00
2018-06-11T02:18:13.173Z,14.30
2018-06-11T02:20:41.317Z,14.28
2018-06-11T02:23:10.223Z,13.95
2018-06-11T02:25:39.183Z,15.47
2018-06-11T02:28:07.327Z,14.00
2018-06-11T02:30:35.498Z,14.47
2018-06-11T02:33:04.005Z,14.90
2018-06-11T02:35:32.871Z,15.43
2018-06-11T02:38:00.988Z,15.60
2018-06-11T02:40:29.318Z,14.53
2018-06-11T02:42:57.487Z,15.90
2018-06-11T02:45:25.765Z,15.77
2018-06-11T02:47:54.327Z,15.93
2018-06-11T02:50:23.309Z,15.10
2018-06-11T02:54:12.092Z,14.83
2018-06-11T02:56:40.200Z,16.33
2018-06-11T02:59:09.366Z,17.20
2018-06-11T03:01:38.014Z,16.17
2018-06-11T03:04:06.328Z,16.27
2018-06-11T03:06:35.359Z,16.20
2018-06-11T03:09:03.934Z,16.80
2018-06-11T03:11:32.080Z,17.27
2018-06-11T03:14:00.311Z,17.30
2018-06-11T03:16:28.384Z,15.90
2018-06-11T03:18:57.052Z,17.40
2018-06-11T03:21:25.135Z,17.43
2018-06-11T03:23:53.718Z,17.50
2018-06-11T03:26:22.567Z,16.57
2018-06-11T03:28:54.222Z,18.20
2018-06-11T03:31:22.391Z,17.60
2018-06-11T03:33:53.335Z,17.93
2018-06-11T03:36:21.659Z,17.43
2018-06-11T03:38:49.826Z,18.27
2018-06-11T03:41:18.311Z,17.63
2018-06-11T03:43:46.531Z,20.00
2018-06-11T03:46:15.684Z,18.70
2018-06-11T03:48:43.799Z,19.03
2018-06-11T03:51:13.391Z,18.80
2018-06-11T03:53:41.521Z,19.42
2018-06-11T03:56:10.074Z,18.70
2018-06-11T03:58:38.196Z,19.50
2018-06-11T04:01:06.316Z,18.77
2018-06-11T04:03:34.478Z,19.35
2018-06-11T04:06:02.706Z,18.60
2018-06-11T04:08:32.077Z,18.30
2018-06-11T04:11:00.801Z,18.10
2018-06-11T04:13:29.457Z,18.57
2018-06-11T04:15:57.570Z,18.50
2018-06-11T04:18:25.758Z,18.48
2018-06-11T04:20:54.931Z,18.87
2018-06-11T04:23:23.970Z,20.47
2018-06-11T04:25:52.302Z,18.67
2018-06-11T04:28:20.629Z,17.87
2018-06-11T04:30:49.123Z,20.00
2018-06-11T04:33:17.271Z,19.60
2018-06-11T04:35:45.349Z,19.80
2018-06-11T04:38:13.443Z,19.57
2018-06-11T04:40:41.596Z,18.43
2018-06-11T04:43:09.655Z,19.53
2018-06-11T04:45:37.756Z,19.62
2018-06-11T04:48:06.164Z,19.33
2018-06-11T04:50:34.660Z,20.62
2018-06-11T04:53:03.391Z,20.27
2018-06-11T04:55:31.711Z,19.73
2018-06-11T04:57:59.857Z,20.08
2018-06-11T05:00:28.717Z,18.90
2018-06-11T05:02:57.767Z,19.43
2018-06-11T05:05:25.900Z,18.77
2018-06-11T05:15:48.996Z,19.60
2018-06-11T05:18:17.192Z,18.60
2018-06-11T05:20:46.459Z,19.07
2018-06-11T05:23:14.612Z,19.77
2018-06-11T05:25:42.715Z,19.70
2018-06-11T05:28:10.866Z,18.62
2018-06-11T05:30:40.334Z,18.20
2018-06-11T05:33:09.741Z,18.90
2018-06-11T05:35:38.027Z,19.60
2018-06-11T05:38:07.902Z,18.55
2018-06-11T05:40:36.229Z,16.55
2018-06-11T05:43:04.432Z,19.97
2018-06-11T05:45:32.859Z,19.23
2018-06-11T05:48:01.005Z,19.80
2018-06-11T05:50:29.406Z,19.57
2018-06-11T05:52:58.132Z,18.17
2018-06-11T05:55:26.310Z,16.97
2018-06-11T05:57:55.385Z,18.02
2018-06-11T06:00:23.626Z,17.17
2018-06-11T06:02:51.810Z,17.60
2018-06-11T06:05:19.947Z,18.10
2018-06-11T06:07:48.088Z,17.23
2018-06-11T06:10:16.278Z,17.53
2018-06-11T06:12:44.467Z,18.40
2018-06-11T06:15:13.277Z,17.87
2018-06-11T06:17:43.626Z,15.80
2018-06-11T06:20:11.747Z,18.73
2018-06-11T06:22:41.179Z,17.67
2018-06-11T06:25:10.658Z,15.77
2018-06-11T06:27:38.828Z,17.42
2018-06-11T06:30:07.384Z,15.60
2018-06-11T06:32:37.096Z,15.43
2018-06-11T06:35:05.355Z,18.60
2018-06-11T06:37:33.609Z,17.45
2018-06-11T06:40:02.130Z,22.32
2018-06-11T06:42:30.334Z,15.88
2018-06-11T06:44:58.915Z,17.17
2018-06-11T06:47:27.118Z,15.13
2018-06-11T06:49:55.879Z,14.20
2018-06-11T06:52:24.119Z,14.53
2018-06-11T06:54:52.231Z,14.77
2018-06-11T06:57:23.126Z,14.20
2018-06-11T06:59:52.424Z,14.60
2018-06-11T07:02:21.203Z,13.53
2018-06-11T07:04:49.294Z,12.40
2018-06-11T07:07:17.411Z,12.87
2018-06-11T07:09:45.570Z,14.07
2018-06-11T07:12:13.775Z,13.80
2018-06-11T07:14:41.890Z,12.85
2018-06-11T07:17:11.387Z,13.93
2018-06-11T07:19:39.589Z,13.00
2018-06-11T07:22:07.696Z,14.17
2018-06-11T07:24:35.834Z,12.37
2018-06-11T07:27:04.017Z,12.82
2018-06-11T07:29:32.948Z,11.70
2018-06-11T07:32:01.070Z,12.40
2018-06-11T07:34:29.840Z,12.77
2018-06-11T07:36:58.025Z,12.80
2018-06-11T07:39:26.151Z,12.70
2018-06-11T07:41:57.915Z,13.47
2018-06-11T07:44:41.523Z,12.80
2018-06-11T07:47:17.682Z,12.60
2018-06-11T07:49:46.271Z,11.87
2018-06-11T07:52:14.515Z,13.23
2018-06-11T07:54:43.055Z,13.75
2018-06-11T07:57:12.707Z,12.53
2018-06-11T07:59:41.079Z,12.50
2018-06-11T08:02:11.488Z,12.10
2018-06-11T08:04:41.336Z,11.93
2018-06-11T08:07:09.911Z,13.15
2018-06-11T08:09:38.531Z,12.53
2018-06-11T08:12:07.405Z,12.05
2018-06-11T08:14:36.135Z,12.30
2018-06-11T08:17:04.238Z,13.25
2018-06-11T08:19:32.821Z,12.70
2018-06-11T08:22:00.944Z,13.65
2018-06-11T08:24:29.938Z,11.60
2018-06-11T08:26:58.059Z,13.60
2018-06-11T08:29:26.933Z,12.90
2018-06-11T08:31:56.064Z,14.80
2018-06-11T08:34:24.199Z,13.93
2018-06-11T08:36:52.340Z,12.70
2018-06-11T08:39:20.552Z,13.50
2018-06-11T08:41:48.687Z,14.20
2018-06-11T08:44:16.758Z,13.97
2018-06-11T08:46:46.654Z,14.23
2018-06-11T08:49:15.050Z,13.13
2018-06-11T08:51:44.643Z,13.65
2018-06-11T08:54:12.753Z,13.48
2018-06-11T08:56:40.927Z,13.90
2018-06-11T08:59:09.079Z,14.83
2018-06-11T09:01:37.235Z,14.20
2018-06-11T09:04:05.469Z,12.85
2018-06-11T09:06:34.441Z,13.22
2018-06-11T09:09:02.560Z,13.88
2018-06-11T09:11:30.714Z,12.60
2018-06-11T09:13:58.799Z,12.37
2018-06-11T09:16:26.968Z,12.00
2018-06-11T09:18:55.047Z,13.07
2018-06-11T09:21:23.183Z,13.25
2018-06-11T09:23:51.344Z,11.23
2018-06-11T09:26:19.564Z,11.63
2018-06-11T09:28:47.671Z,10.73
2018-06-11T09:31:15.982Z,13.90
2018-06-11T09:33:44.106Z,13.62
2018-06-11T09:36:13.800Z,12.63
2018-06-11T09:38:41.903Z,13.00
2018-06-11T09:41:10.352Z,11.93
2018-06-11T09:43:38.627Z,12.60
2018-06-11T09:46:08.293Z,12.97
2018-06-11T09:48:38.876Z,11.78
2018-06-11T09:51:07.055Z,13.95
2018-06-11T09:53:35.184Z,14.17
2018-06-11T09:56:03.712Z,11.55
2018-06-11T09:58:31.831Z,13.23
2018-06-11T10:00:59.964Z,12.27
2018-06-11T10:03:28.300Z,12.90
2018-06-11T10:05:56.498Z,13.73
2018-06-11T10:08:24.603Z,12.40
2018-06-11T10:10:53.399Z,12.77
2018-06-11T10:13:21.486Z,10.27
2018-06-11T10:15:49.627Z,14.53
2018-06-11T10:18:18.190Z,12.87
2018-06-11T10:20:47.159Z,12.13
2018-06-11T10:23:15.657Z,12.25
2018-06-11T10:25:43.757Z,13.37
2018-06-11T10:28:12.979Z,13.63
2018-06-11T10:30:41.097Z,13.30
2018-06-11T10:33:09.252Z,13.50
2018-06-11T10:35:38.240Z,12.30
2018-06-11T10:38:06.593Z,12.73
2018-06-11T10:40:35.108Z,11.57
2018-06-11T10:43:03.256Z,12.58
2018-06-11T10:45:31.513Z,12.88
2018-06-11T10:47:59.689Z,12.53
2018-06-11T10:50:28.334Z,12.50
2018-06-11T10:52:56.691Z,12.67
2018-06-11T10:55:25.295Z,12.00
2018-06-11T10:57:53.404Z,12.43
2018-06-11T11:00:21.561Z,12.97
2018-06-11T11:02:49.662Z,13.57
2018-06-11T11:05:17.758Z,15.47
2018-06-11T11:07:45.911Z,13.03
2018-06-11T11:10:14.075Z,14.07
2018-06-11T11:12:42.241Z,13.33
2018-06-11T11:15:10.498Z,15.07
2018-06-11T11:17:39.094Z,12.07
2018-06-11T11:20:07.486Z,14.95
2018-06-11T11:22:35.657Z,13.50
2018-06-11T11:25:03.880Z,13.67
2018-06-11T11:27:32.344Z,12.40
2018-06-11T11:30:01.377Z,11.73
2018-06-11T11:32:29.994Z,12.23
2018-06-11T11:34:58.261Z,13.23
2018-06-11T11:37:27.023Z,13.93
2018-06-11T11:39:55.537Z,11.50
2018-06-11T11:42:24.017Z,11.70
2018-06-11T11:44:52.295Z,12.40
2018-06-11T11:47:20.702Z,11.30
2018-06-11T11:49:48.883Z,13.10
2018-06-11T11:52:16.995Z,13.57
2018-06-11T11:54:45.138Z,11.53
2018-06-11T11:57:13.984Z,12.43
2018-06-11T11:59:42.112Z,12.10
2018-06-11T12:02:10.307Z,13.67
2018-06-11T12:04:38.509Z,13.87
2018-06-11T12:07:06.672Z,13.80
2018-06-11T12:09:34.739Z,13.65
2018-06-11T12:12:03.100Z,14.85
2018-06-11T12:14:31.341Z,12.40
2018-06-11T12:16:59.722Z,14.20
2018-06-11T12:19:27.998Z,13.60
2018-06-11T12:21:58.209Z,12.90
2018-06-11T12:24:27.094Z,13.70
2018-06-11T12:26:55.475Z,14.87
2018-06-11T12:29:23.562Z,13.57
2018-06-11T12:31:51.663Z,15.13
2018-06-11T12:34:19.761Z,14.33
2018-06-11T12:36:48.172Z,16.07
2018-06-11T12:39:16.307Z,15.87
2018-06-11T12:41:44.387Z,14.63
2018-06-11T12:44:13.285Z,15.45
2018-06-11T12:46:41.370Z,14.37
2018-06-11T12:49:09.453Z,15.28
2018-06-11T12:51:37.560Z,14.35
2018-06-11T12:54:05.738Z,14.10
2018-06-11T12:56:33.849Z,13.57
2018-06-11T12:59:03.212Z,14.38
2018-06-11T13:01:31.326Z,14.97
2018-06-11T13:03:59.896Z,14.27
2018-06-11T13:06:28.018Z,15.30
2018-06-11T13:08:56.173Z,13.13
2018-06-11T13:11:24.288Z,14.43
2018-06-11T13:13:52.390Z,14.90
2018-06-11T13:16:20.530Z,14.23
2018-06-11T13:18:49.247Z,14.40
2018-06-11T13:21:17.380Z,14.33
2018-06-11T13:23:46.126Z,15.63
2018-06-11T13:26:14.232Z,14.80
2018-06-11T13:28:42.401Z,14.40
2018-06-11T13:31:10.656Z,14.53
2018-06-11T13:33:38.874Z,14.70
2018-06-11T13:36:07.095Z,14.20
2018-06-11T13:38:35.457Z,15.10
2018-06-11T13:41:03.563Z,14.70
2018-06-11T13:43:31.705Z,15.57
2018-06-11T13:45:59.873Z,15.10
2018-06-11T13:48:28.135Z,16.00
2018-06-11T13:50:57.221Z,14.10
2018-06-11T13:53:25.343Z,16.10
2018-06-11T13:55:53.540Z,14.23
2018-06-11T13:58:21.992Z,14.90
2018-06-11T14:00:50.101Z,14.37
2018-06-11T14:03:18.229Z,14.50
2018-06-11T14:05:46.365Z,15.27
2018-06-11T14:08:14.465Z,14.83
2018-06-11T14:10:42.648Z,14.10
2018-06-11T14:13:11.019Z,16.00
2018-06-11T14:15:39.630Z,15.15
2018-06-11T14:18:07.863Z,15.27
2018-06-11T14:20:36.043Z,13.75
2018-06-11T14:23:04.339Z,14.58
2018-06-11T14:25:32.627Z,15.90
2018-06-11T14:28:00.796Z,14.90
2018-06-11T14:30:28.960Z,15.60
2018-06-11T14:32:57.699Z,16.10
2018-06-11T14:35:25.834Z,18.00
2018-06-11T14:37:53.977Z,14.83
2018-06-11T14:40:22.092Z,15.63
2018-06-11T14:42:50.613Z,15.27
2018-06-11T14:45:18.804Z,19.33
2018-06-11T14:47:46.966Z,16.03
2018-06-11T14:50:15.969Z,14.63
2018-06-11T14:52:44.985Z,13.05
2018-06-11T14:55:13.068Z,10.75
2018-06-11T14:57:41.367Z,11.00
2018-06-11T15:00:09.497Z,9.60
2018-06-11T15:02:37.605Z,9.33
2018-06-11T15:05:05.726Z,9.83
2018-06-11T15:07:34.509Z,9.83
2018-06-11T15:10:02.664Z,11.05
2018-06-11T15:12:30.762Z,11.90
2018-06-11T15:14:58.908Z,11.93
2018-06-11T15:17:28.792Z,12.98
2018-06-11T15:19:58.311Z,15.35
2018-06-11T15:22:26.936Z,18.33
2018-06-11T15:25:16.408Z,19.90
2018-06-11T15:27:44.509Z,23.00
2018-06-11T15:30:12.682Z,22.13
2018-06-11T15:32:40.806Z,22.47
2018-06-11T15:35:09.079Z,22.37
2018-06-11T15:37:37.790Z,23.13
2018-06-11T15:40:05.898Z,23.63
2018-06-11T15:42:34.470Z,23.32
2018-06-11T15:45:02.582Z,23.00
2018-06-11T15:47:30.862Z,23.80
2018-06-11T15:49:58.961Z,23.30
2018-06-11T15:52:28.072Z,23.32
2018-06-11T15:54:56.142Z,25.90
2018-06-11T15:57:24.994Z,27.30
2018-06-11T15:59:54.035Z,27.80
2018-06-11T16:02:22.145Z,27.40
2018-06-11T16:04:50.222Z,28.27
2018-06-11T16:07:18.350Z,26.83
2018-06-11T16:09:46.426Z,26.90
2018-06-11T16:12:15.055Z,28.57
2018-06-11T16:14:43.110Z,29.80
2018-06-11T16:17:11.162Z,29.67
2018-06-11T16:19:39.241Z,30.77
2018-06-11T16:22:07.331Z,30.33
2018-06-11T16:24:35.474Z,29.37
2018-06-11T16:27:04.002Z,30.30
2018-06-11T16:29:32.066Z,31.90
2018-06-11T16:32:00.151Z,32.00
2018-06-11T16:34:28.271Z,31.77
2018-06-11T16:36:57.420Z,33.30
2018-06-11T16:39:25.510Z,30.30
2018-06-11T16:41:54.144Z,33.40
2018-06-11T16:44:22.224Z,31.27
2018-06-11T16:46:50.330Z,30.43
2018-06-11T16:49:18.509Z,31.93
2018-06-11T16:51:46.714Z,30.97
2018-06-11T16:54:15.446Z,31.47
2018-06-11T16:56:44.595Z,31.60
2018-06-11T16:59:12.718Z,32.43
2018-06-11T17:01:40.910Z,36.03
2018-06-11T17:04:09.284Z,35.33
2018-06-11T17:06:37.346Z,34.92
2018-06-11T17:09:07.782Z,35.00
2018-06-11T17:11:36.694Z,38.70
2018-06-11T17:14:04.818Z,35.23
2018-06-11T17:16:32.896Z,34.30
2018-06-11T17:19:01.968Z,34.63
2018-06-11T17:21:30.091Z,33.10
2018-06-11T17:23:58.616Z,30.85
2018-06-11T17:26:27.659Z,33.37
2018-06-11T17:28:55.724Z,29.07
2018-06-11T17:31:23.920Z,34.57
2018-06-11T17:33:52.286Z,32.33
2018-06-11T17:36:21.759Z,31.73
2018-06-11T17:38:50.790Z,30.77
2018-06-11T17:41:21.214Z,32.50
2018-06-11T17:43:49.303Z,31.30
2018-06-11T17:46:17.550Z,32.53
2018-06-11T17:48:47.626Z,31.83
2018-06-11T17:51:15.760Z,30.68
2018-06-11T17:53:44.352Z,30.73
2018-06-11T17:56:12.614Z,33.00
2018-06-11T17:58:41.979Z,30.65
2018-06-11T18:01:10.190Z,34.43
2018-06-11T18:03:38.363Z,32.98
2018-06-11T18:06:07.624Z,32.85
2018-06-11T18:08:35.646Z,32.25
2018-06-11T18:11:03.821Z,33.53
2018-06-11T18:13:32.046Z,33.00
2018-06-11T18:16:00.657Z,34.43
2018-06-11T18:18:29.262Z,34.67
2018-06-11T18:20:57.979Z,32.37
2018-06-11T18:23:26.425Z,31.83
2018-06-11T18:25:54.574Z,31.63
2018-06-11T18:28:22.763Z,31.70
2018-06-11T18:30:51.595Z,32.63
2018-06-11T18:33:19.701Z,32.97
2018-06-11T18:35:48.027Z,32.97
2018-06-11T18:38:16.197Z,32.58
2018-06-11T18:40:44.628Z,33.47
2018-06-11T18:43:15.157Z,32.42
2018-06-11T18:45:43.322Z,29.37
2018-06-11T18:48:12.307Z,28.00
2018-06-11T18:50:42.630Z,29.60
2018-06-11T18:53:11.063Z,29.70
2018-06-11T18:55:39.467Z,29.73
2018-06-11T18:58:07.984Z,31.57
2018-06-11T19:00:36.150Z,30.02
2018-06-11T19:03:04.863Z,28.87
2018-06-11T19:05:33.630Z,29.43
2018-06-11T19:08:01.921Z,31.13
2018-06-11T19:10:36.271Z,28.92
2018-06-11T19:13:04.560Z,29.23
2018-06-11T19:15:33.663Z,30.10
2018-06-11T19:18:02.734Z,28.13
2018-06-11T19:20:32.004Z,29.80
2018-06-11T19:23:00.324Z,30.10
2018-06-11T19:25:29.322Z,27.70
2018-06-11T19:27:59.565Z,30.20
2018-06-11T19:30:29.088Z,34.43
2018-06-11T19:32:57.306Z,35.53
2018-06-11T19:35:25.477Z,28.77
2018-06-11T19:37:55.049Z,29.47
2018-06-11T19:40:23.447Z,28.60
2018-06-11T19:42:51.658Z,30.83
2018-06-11T19:45:20.417Z,28.53
2018-06-11T19:47:48.590Z,31.00
2018-06-11T19:50:17.578Z,30.27
2018-06-11T19:52:45.637Z,29.18
2018-06-11T19:55:14.159Z,29.80
2018-06-11T19:57:42.234Z,30.13
2018-06-11T20:00:10.334Z,34.90
2018-06-11T20:02:38.421Z,31.85
2018-06-11T20:05:07.520Z,29.15
2018-06-11T20:07:36.781Z,27.90
2018-06-11T20:10:05.082Z,28.37
2018-06-11T20:12:33.289Z,30.80
2018-06-11T20:15:01.373Z,30.27
2018-06-11T20:17:30.527Z,32.10
2018-06-11T20:20:00.947Z,30.34
2018-06-11T20:22:29.638Z,31.37
2018-06-11T20:24:57.925Z,31.07
2018-06-11T20:27:27.294Z,30.10
2018-06-11T20:29:55.403Z,29.07
2018-06-11T20:32:23.566Z,29.67
2018-06-11T20:34:51.807Z,30.23
2018-06-11T20:37:20.033Z,29.57
2018-06-11T20:39:48.128Z,29.13
2018-06-11T20:42:16.410Z,28.80
2018-06-11T20:44:44.516Z,29.77
2018-06-11T20:47:13.747Z,28.73
2018-06-11T20:49:42.043Z,27.00
2018-06-11T20:52:11.468Z,28.07
2018-06-11T20:54:39.602Z,26.30
2018-06-11T20:57:07.930Z,26.40
2018-06-11T20:59:36.006Z,26.90
2018-06-11T21:02:04.066Z,26.20
2018-06-11T21:04:32.351Z,24.40
2018-06-11T21:07:01.410Z,23.17
2018-06-11T21:09:29.866Z,23.15
2018-06-11T21:11:58.109Z,21.07
2018-06-11T21:14:26.234Z,22.03
2018-06-11T21:16:54.405Z,21.60
2018-06-11T21:19:22.818Z,24.97
2018-06-11T21:21:51.863Z,20.40
2018-06-11T21:24:20.266Z,19.70
2018-06-11T21:26:48.552Z,19.60
2018-06-11T21:29:16.790Z,20.30
2018-06-11T21:31:44.917Z,18.40
2018-06-11T21:34:13.167Z,18.00
2018-06-11T21:36:41.296Z,19.13
2018-06-11T21:39:09.396Z,18.87
2018-06-11T21:41:38.416Z,16.87
2018-06-11T21:44:06.738Z,17.43
2018-06-11T21:46:35.032Z,17.73
2018-06-11T21:49:03.226Z,16.97
2018-06-11T21:51:31.382Z,16.90
2018-06-11T21:54:01.131Z,16.52
2018-06-11T21:56:30.394Z,16.65
2018-06-11T21:58:59.473Z,16.33
2018-06-11T22:01:27.993Z,15.10
2018-06-11T22:03:56.435Z,15.17
2018-06-11T22:06:24.612Z,15.50
2018-06-11T22:08:52.858Z,16.20
2018-06-11T22:11:21.146Z,15.13
2018-06-11T22:13:50.082Z,16.70
2018-06-11T22:16:18.232Z,14.67
2018-06-11T22:18:46.352Z,15.10
2018-06-11T22:21:14.643Z,15.63
2018-06-11T22:23:42.947Z,16.57
2018-06-11T22:26:11.736Z,15.28
2018-06-11T22:28:40.480Z,16.13
2018-06-11T22:31:08.815Z,15.53
2018-06-11T22:33:37.002Z,15.07
2018-06-11T22:36:05.259Z,14.18
2018-06-11T22:38:33.469Z,15.17
2018-06-11T22:41:01.741Z,15.53
2018-06-11T22:43:30.375Z,15.87
2018-06-11T22:45:59.285Z,14.50
2018-06-11T22:48:27.445Z,14.50
2018-06-11T22:50:55.834Z,14.20
2018-06-11T22:53:25.126Z,15.47
2018-06-11T22:55:53.301Z,13.77
2018-06-11T22:58:22.141Z,14.40
2018-06-11T23:00:50.274Z,13.43
2018-06-11T23:03:18.394Z,15.07
2018-06-11T23:05:46.614Z,13.88
2018-06-11T23:08:15.554Z,13.40
2018-06-11T23:10:44.396Z,13.48
2018-06-11T23:13:12.508Z,14.63
2018-06-11T23:15:41.003Z,14.40
2018-06-11T23:18:09.520Z,14.33
2018-06-11T23:20:37.633Z,13.70
2018-06-11T23:23:06.338Z,15.43
2018-06-11T23:25:34.460Z,13.67
2018-06-11T23:28:02.954Z,13.23
2018-06-11T23:30:31.134Z,14.80
2018-06-11T23:32:59.432Z,13.60
2018-06-11T23:35:27.560Z,13.20
2018-06-11T23:37:55.690Z,15.00
2018-06-11T23:40:23.870Z,17.03
2018-06-11T23:42:52.113Z,14.07
2018-06-11T23:45:22.099Z,12.73
2018-06-11T23:47:50.515Z,13.60
2018-06-11T23:50:18.659Z,13.37
2018-06-11T23:52:46.796Z,12.43
2018-06-11T23:55:15.145Z,13.20
2018-06-11T23:57:43.266Z,12.98
